sensor_id;sensor_type;location;lat;lon;timestamp;pressure;altitude;pressure_sealevel;temperature;humidity
12913;BME280;6524;51.368;11.984;2024-02-04T00:01:39;153542.56;;;7.50;82.78
12913;BME280;6524;51.368;11.984;2024-02-04T00:06:39;153536.06;;;7.47;83.16
12913;BME280;6524;51.368;11.984;2024-02-04T00:11:39;153556.88;;;7.55;81.85
12913;BME280;6524;51.368;11.984;2024-02-04T00:16:40;153569.94;;;7.60;81.27
12913;BME280;6524;51.368;11.984;2024-02-04T00:21:40;153549.09;;;7.52;79.94
12913;BME280;6524;51.368;11.984;2024-02-04T00:26:41;153468.34;;;7.20;80.09
12913;BME280;6524;51.368;11.984;2024-02-04T00:31:41;153459.25;;;7.17;79.74
12913;BME280;6524;51.368;11.984;2024-02-04T00:36:42;153450.16;;;7.13;79.21
12913;BME280;6524;51.368;11.984;2024-02-04T00:41:43;153437.13;;;7.08;79.23
12913;BME280;6524;51.368;11.984;2024-02-04T00:46:44;153452.75;;;7.14;79.05
12913;BME280;6524;51.368;11.984;2024-02-04T00:51:45;153473.59;;;7.23;78.82
12913;BME280;6524;51.368;11.984;2024-02-04T00:56:46;153489.25;;;7.29;79.11
12913;BME280;6524;51.368;11.984;2024-02-04T01:32:49;153382.50;;;6.87;82.71
12913;BME280;6524;51.368;11.984;2024-02-04T01:37:49;153465.78;;;7.19;81.74
12913;BME280;6524;51.368;11.984;2024-02-04T01:42:50;153497.06;;;7.32;82.17
12913;BME280;6524;51.368;11.984;2024-02-04T01:47:50;153473.59;;;7.23;83.09
12913;BME280;6524;51.368;11.984;2024-02-04T01:52:51;153411.13;;;6.98;85.18
12913;BME280;6524;51.368;11.984;2024-02-04T01:57:52;153452.75;;;7.14;85.17
12913;BME280;6524;51.368;11.984;2024-02-04T02:02:53;153418.94;;;7.01;85.28
12913;BME280;6524;51.368;11.984;2024-02-04T05:00:59;153398.09;;;6.93;84.26
12913;BME280;6524;51.368;11.984;2024-02-04T05:06:00;153411.13;;;6.98;83.95
12913;BME280;6524;51.368;11.984;2024-02-04T05:11:01;153347.38;;;6.73;85.18
12913;BME280;6524;51.368;11.984;2024-02-04T05:16:01;153325.25;;;6.64;85.04
12913;BME280;6524;51.368;11.984;2024-02-04T05:21:02;153373.38;;;6.83;84.63
12913;BME280;6524;51.368;11.984;2024-02-04T05:26:06;153372.09;;;6.83;84.89
12913;BME280;6524;51.368;11.984;2024-02-04T05:31:07;153390.28;;;6.90;84.87
12913;BME280;6524;51.368;11.984;2024-02-04T05:36:08;153431.91;;;7.06;84.62
12913;BME280;6524;51.368;11.984;2024-02-04T05:41:08;153386.41;;;6.88;85.69
12913;BME280;6524;51.368;11.984;2024-02-04T05:46:08;153486.59;;;7.28;83.35
12913;BME280;6524;51.368;11.984;2024-02-04T05:51:09;153507.44;;;7.36;83.19
12913;BME280;6524;51.368;11.984;2024-02-04T05:56:09;153517.84;;;7.40;83.04
12913;BME280;6524;51.368;11.984;2024-02-04T06:01:09;153588.13;;;7.68;82.65
12913;BME280;6524;51.368;11.984;2024-02-04T06:06:17;153476.16;;;7.24;84.05
12913;BME280;6524;51.368;11.984;2024-02-04T06:11:19;153530.88;;;7.45;83.35
12913;BME280;6524;51.368;11.984;2024-02-04T06:16:20;153534.75;;;7.47;83.53
12913;BME280;6524;51.368;11.984;2024-02-04T06:21:20;153551.66;;;7.53;83.15
12913;BME280;6524;51.368;11.984;2024-02-04T06:26:20;153480.09;;;7.25;84.37
12913;BME280;6524;51.368;11.984;2024-02-04T06:31:21;153567.28;;;7.59;83.29
12913;BME280;6524;51.368;11.984;2024-02-04T06:36:21;153516.56;;;7.39;84.30
12913;BME280;6524;51.368;11.984;2024-02-04T06:41:21;153567.28;;;7.59;83.51
12913;BME280;6524;51.368;11.984;2024-02-04T06:46:25;153581.63;;;7.65;83.17
12913;BME280;6524;51.368;11.984;2024-02-04T06:51:26;153663.59;;;7.97;82.53
12913;BME280;6524;51.368;11.984;2024-02-04T06:56:26;153580.31;;;7.64;83.92
12913;BME280;6524;51.368;11.984;2024-02-04T07:01:28;153640.16;;;7.88;82.62
12913;BME280;6524;51.368;11.984;2024-02-04T07:06:29;153624.56;;;7.82;84.43
12913;BME280;6524;51.368;11.984;2024-02-04T07:11:29;153786.03;;;8.45;82.23
12913;BME280;6524;51.368;11.984;2024-02-04T07:16:33;153887.66;;;8.85;79.75
12913;BME280;6524;51.368;11.984;2024-02-04T07:21:33;154025.81;;;9.39;77.34
12913;BME280;6524;51.368;11.984;2024-02-04T07:26:34;154012.75;;;9.34;76.76
12913;BME280;6524;51.368;11.984;2024-02-04T07:32:08;154023.16;;;9.38;76.01
12913;BME280;6524;51.368;11.984;2024-02-04T07:37:09;154046.63;;;9.47;76.02
12913;BME280;6524;51.368;11.984;2024-02-04T07:42:09;154088.38;;;9.64;74.69
12913;BME280;6524;51.368;11.984;2024-02-04T07:47:10;153886.34;;;8.85;75.57
12913;BME280;6524;51.368;11.984;2024-02-04T07:52:12;153662.31;;;7.97;79.55
12913;BME280;6524;51.368;11.984;2024-02-04T07:57:13;153567.28;;;7.59;81.72
12913;BME280;6524;51.368;11.984;2024-02-04T08:02:13;153655.78;;;7.94;81.23
12913;BME280;6524;51.368;11.984;2024-02-04T08:07:14;153650.63;;;7.92;81.10
12913;BME280;6524;51.368;11.984;2024-02-04T08:12:14;153646.69;;;7.91;81.27
12913;BME280;6524;51.368;11.984;2024-02-04T08:17:15;153655.78;;;7.94;80.31
12913;BME280;6524;51.368;11.984;2024-02-04T08:22:15;153692.28;;;8.08;79.22
12913;BME280;6524;51.368;11.984;2024-02-04T08:27:18;153666.25;;;7.98;79.52
12913;BME280;6524;51.368;11.984;2024-02-04T08:32:19;153702.66;;;8.12;79.48
12913;BME280;6524;51.368;11.984;2024-02-04T08:37:19;153658.44;;;7.95;80.60
12913;BME280;6524;51.368;11.984;2024-02-04T08:42:20;153705.31;;;8.14;80.85
12913;BME280;6524;51.368;11.984;2024-02-04T08:47:21;153730.03;;;8.23;80.08
12913;BME280;6524;51.368;11.984;2024-02-04T08:52:21;153767.78;;;8.38;79.47
12913;BME280;6524;51.368;11.984;2024-02-04T08:57:22;153770.41;;;8.39;79.22
12913;BME280;6524;51.368;11.984;2024-02-04T09:02:23;153769.13;;;8.39;79.36
12913;BME280;6524;51.368;11.984;2024-02-04T09:07:24;153744.31;;;8.29;80.30
12913;BME280;6524;51.368;11.984;2024-02-04T09:12:25;153733.94;;;8.25;80.81
12913;BME280;6524;51.368;11.984;2024-02-04T09:17:25;153741.75;;;8.28;81.08
12913;BME280;6524;51.368;11.984;2024-02-04T09:22:26;153709.19;;;8.15;81.28
12913;BME280;6524;51.368;11.984;2024-02-04T09:27:27;153743.03;;;8.28;81.35
12913;BME280;6524;51.368;11.984;2024-02-04T09:32:28;153705.31;;;8.14;82.11
12913;BME280;6524;51.368;11.984;2024-02-04T09:37:29;153642.81;;;7.89;83.67
12913;BME280;6524;51.368;11.984;2024-02-04T09:42:30;153696.16;;;8.10;82.68
12913;BME280;6524;51.368;11.984;2024-02-04T09:47:32;153653.22;;;7.93;83.85
12913;BME280;6524;51.368;11.984;2024-02-04T09:52:39;153655.78;;;7.94;84.27
12913;BME280;6524;51.368;11.984;2024-02-04T09:57:40;153702.66;;;8.12;83.28
12913;BME280;6524;51.368;11.984;2024-02-04T10:02:41;153757.38;;;8.34;81.99
12913;BME280;6524;51.368;11.984;2024-02-04T10:07:43;153746.97;;;8.30;82.49
12913;BME280;6524;51.368;11.984;2024-02-04T10:12:44;153771.69;;;8.40;82.46
12913;BME280;6524;51.368;11.984;2024-02-04T10:17:46;153757.38;;;8.34;82.77
12913;BME280;6524;51.368;11.984;2024-02-04T10:22:48;153754.78;;;8.33;81.96
12913;BME280;6524;51.368;11.984;2024-02-04T10:27:50;153739.16;;;8.27;81.44
12913;BME280;6524;51.368;11.984;2024-02-04T10:32:53;153671.44;;;8.00;81.42
12913;BME280;6524;51.368;11.984;2024-02-04T10:37:54;153655.78;;;7.94;82.73
12913;BME280;6524;51.368;11.984;2024-02-04T10:43:00;153693.56;;;8.09;83.13
12913;BME280;6524;51.368;11.984;2024-02-04T10:48:04;153655.78;;;7.94;83.34
12913;BME280;6524;51.368;11.984;2024-02-04T10:53:08;153541.28;;;7.49;84.45
12913;BME280;6524;51.368;11.984;2024-02-04T10:58:12;153637.59;;;7.87;82.89
12913;BME280;6524;51.368;11.984;2024-02-04T11:03:15;153645.41;;;7.90;83.15
12913;BME280;6524;51.368;11.984;2024-02-04T11:08:17;153728.75;;;8.23;82.22
12913;BME280;6524;51.368;11.984;2024-02-04T11:13:20;153736.56;;;8.26;82.09
12913;BME280;6524;51.368;11.984;2024-02-04T11:19:23;153745.69;;;8.29;81.45
12913;BME280;6524;51.368;11.984;2024-02-04T11:29:51;153715.72;;;8.18;80.53
12913;BME280;6524;51.368;11.984;2024-02-04T11:34:54;153822.53;;;8.60;79.10
12913;BME280;6524;51.368;11.984;2024-02-04T11:39:57;153818.66;;;8.58;77.99
12913;BME280;6524;51.368;11.984;2024-02-04T11:45:13;153842.09;;;8.67;77.70
12913;BME280;6524;51.368;11.984;2024-02-04T11:50:27;153840.81;;;8.67;77.82
12913;BME280;6524;51.368;11.984;2024-02-04T12:34:00;153887.66;;;8.85;75.48
12913;BME280;6524;51.368;11.984;2024-02-04T12:39:04;153843.38;;;8.68;75.27
12913;BME280;6524;51.368;11.984;2024-02-04T12:44:08;153851.22;;;8.71;73.03
12913;BME280;6524;51.368;11.984;2024-02-04T12:49:08;153812.13;;;8.55;71.73
12913;BME280;6524;51.368;11.984;2024-02-04T12:54:11;153775.59;;;8.41;72.80
12913;BME280;6524;51.368;11.984;2024-02-04T12:59:29;153782.09;;;8.44;73.10
12913;BME280;6524;51.368;11.984;2024-02-04T13:04:38;153791.22;;;8.47;72.86
12913;BME280;6524;51.368;11.984;2024-02-04T13:09:42;153737.88;;;8.26;72.92
12913;BME280;6524;51.368;11.984;2024-02-04T13:14:43;153720.94;;;8.20;74.20
12913;BME280;6524;51.368;11.984;2024-02-04T13:19:44;153700.09;;;8.11;76.25
12913;BME280;6524;51.368;11.984;2024-02-04T13:24:45;153620.66;;;7.80;77.41
12913;BME280;6524;51.368;11.984;2024-02-04T13:29:46;153664.94;;;7.98;77.28
12913;BME280;6524;51.368;11.984;2024-02-04T13:34:48;153645.41;;;7.90;76.95
12913;BME280;6524;51.368;11.984;2024-02-04T13:39:49;153651.91;;;7.93;76.23
12913;BME280;6524;51.368;11.984;2024-02-04T13:44:51;153663.59;;;7.97;76.02
12913;BME280;6524;51.368;11.984;2024-02-04T13:49:51;153679.22;;;8.03;74.47
12913;BME280;6524;51.368;11.984;2024-02-04T13:54:52;153648.00;;;7.91;73.97
12913;BME280;6524;51.368;11.984;2024-02-04T13:59:54;153655.78;;;7.94;73.08
12913;BME280;6524;51.368;11.984;2024-02-04T14:04:55;153649.31;;;7.92;72.53
12913;BME280;6524;51.368;11.984;2024-02-04T14:09:56;153650.63;;;7.92;72.47
12913;BME280;6524;51.368;11.984;2024-02-04T14:14:58;153720.94;;;8.20;72.27
12913;BME280;6524;51.368;11.984;2024-02-04T14:20:00;153710.50;;;8.16;72.54
12913;BME280;6524;51.368;11.984;2024-02-04T14:25:01;153718.31;;;8.19;72.44
12913;BME280;6524;51.368;11.984;2024-02-04T14:30:02;153658.44;;;7.95;73.31
12913;BME280;6524;51.368;11.984;2024-02-04T14:35:04;153697.50;;;8.10;72.69
12913;BME280;6524;51.368;11.984;2024-02-04T14:40:06;153670.13;;;8.00;73.07
12913;BME280;6524;51.368;11.984;2024-02-04T14:45:07;153645.41;;;7.90;72.90
12913;BME280;6524;51.368;11.984;2024-02-04T14:50:08;153651.91;;;7.93;73.52
12913;BME280;6524;51.368;11.984;2024-02-04T14:55:09;153635.00;;;7.86;73.12
12913;BME280;6524;51.368;11.984;2024-02-04T15:00:10;153619.38;;;7.80;73.94
12913;BME280;6524;51.368;11.984;2024-02-04T15:05:11;153594.66;;;7.70;74.39
12913;BME280;6524;51.368;11.984;2024-02-04T15:10:12;153559.47;;;7.56;75.70
12913;BME280;6524;51.368;11.984;2024-02-04T15:15:13;153588.13;;;7.68;75.27
12913;BME280;6524;51.368;11.984;2024-02-04T15:20:14;153593.34;;;7.70;75.76
12913;BME280;6524;51.368;11.984;2024-02-04T15:25:18;153624.56;;;7.82;75.17
12913;BME280;6524;51.368;11.984;2024-02-04T15:30:20;153681.88;;;8.04;74.09
12913;BME280;6524;51.368;11.984;2024-02-04T15:35:21;153707.91;;;8.15;74.30
12913;BME280;6524;51.368;11.984;2024-02-04T15:40:22;153657.16;;;7.95;74.97
12913;BME280;6524;51.368;11.984;2024-02-04T15:45:22;153683.16;;;8.05;75.45
12913;BME280;6524;51.368;11.984;2024-02-04T15:50:24;153676.66;;;8.02;75.66
12913;BME280;6524;51.368;11.984;2024-02-04T15:55:25;153745.69;;;8.29;74.97
12913;BME280;6524;51.368;11.984;2024-02-04T16:00:27;153663.59;;;7.97;76.85
12913;BME280;6524;51.368;11.984;2024-02-04T16:05:28;153692.28;;;8.08;77.42
12913;BME280;6524;51.368;11.984;2024-02-04T16:10:29;153715.72;;;8.18;77.33
12913;BME280;6524;51.368;11.984;2024-02-04T16:15:30;153624.56;;;7.82;78.84
12913;BME280;6524;51.368;11.984;2024-02-04T16:20:31;153668.84;;;7.99;78.55
12913;BME280;6524;51.368;11.984;2024-02-04T16:25:31;153677.94;;;8.03;78.88
12913;BME280;6524;51.368;11.984;2024-02-04T16:31:06;153636.28;;;7.86;79.78
12913;BME280;6524;51.368;11.984;2024-02-04T16:36:10;153668.84;;;7.99;79.21
12913;BME280;6524;51.368;11.984;2024-02-04T16:41:11;153672.75;;;8.01;78.98
12913;BME280;6524;51.368;11.984;2024-02-04T16:46:12;153720.94;;;8.20;78.58
12913;BME280;6524;51.368;11.984;2024-02-04T16:51:14;153720.94;;;8.20;78.86
12913;BME280;6524;51.368;11.984;2024-02-04T16:56:20;153709.19;;;8.15;78.90
12913;BME280;6524;51.368;11.984;2024-02-04T17:01:23;153765.19;;;8.37;77.76
12913;BME280;6524;51.368;11.984;2024-02-04T17:06:26;153534.75;;;7.47;81.23
12913;BME280;6524;51.368;11.984;2024-02-04T17:11:28;153418.94;;;7.01;84.35
12913;BME280;6524;51.368;11.984;2024-02-04T17:16:43;153506.16;;;7.35;83.13
12913;BME280;6524;51.368;11.984;2024-02-04T17:21:46;153468.34;;;7.20;83.26
12913;BME280;6524;51.368;11.984;2024-02-04T17:26:53;153512.63;;;7.38;83.47
12913;BME280;6524;51.368;11.984;2024-02-04T17:31:54;153434.53;;;7.07;84.85
12913;BME280;6524;51.368;11.984;2024-02-04T17:36:55;153452.75;;;7.14;84.83
12913;BME280;6524;51.368;11.984;2024-02-04T17:41:58;153450.16;;;7.13;85.05
12913;BME280;6524;51.368;11.984;2024-02-04T17:47:00;153444.94;;;7.11;85.38
12913;BME280;6524;51.368;11.984;2024-02-04T17:52:02;153464.44;;;7.19;84.25
12913;BME280;6524;51.368;11.984;2024-02-04T17:57:03;153502.22;;;7.34;84.31
12913;BME280;6524;51.368;11.984;2024-02-04T18:02:09;153474.88;;;7.23;85.02
12913;BME280;6524;51.368;11.984;2024-02-04T18:07:31;153448.81;;;7.13;85.63
12913;BME280;6524;51.368;11.984;2024-02-04T18:12:32;153486.59;;;7.28;85.17
12913;BME280;6524;51.368;11.984;2024-02-04T18:17:34;153525.66;;;7.43;84.46
12913;BME280;6524;51.368;11.984;2024-02-04T18:22:35;153497.06;;;7.32;85.10
12913;BME280;6524;51.368;11.984;2024-02-04T18:27:36;153520.44;;;7.41;84.35
12913;BME280;6524;51.368;11.984;2024-02-04T18:32:37;153539.97;;;7.49;84.02
12913;BME280;6524;51.368;11.984;2024-02-04T18:37:39;153499.66;;;7.33;85.16
12913;BME280;6524;51.368;11.984;2024-02-04T18:42:40;153536.06;;;7.47;84.62
12913;BME280;6524;51.368;11.984;2024-02-04T18:47:41;153533.47;;;7.46;85.13
12913;BME280;6524;51.368;11.984;2024-02-04T18:52:50;153562.13;;;7.57;84.51
12913;BME280;6524;51.368;11.984;2024-02-04T18:57:51;153539.97;;;7.49;84.75
12913;BME280;6524;51.368;11.984;2024-02-04T19:02:52;153491.84;;;7.30;85.22
12913;BME280;6524;51.368;11.984;2024-02-04T19:07:53;153463.13;;;7.18;85.93
12913;BME280;6524;51.368;11.984;2024-02-04T19:12:53;153437.13;;;7.08;85.75
12913;BME280;6524;51.368;11.984;2024-02-04T19:17:54;153438.44;;;7.09;85.85
12913;BME280;6524;51.368;11.984;2024-02-04T19:22:54;153450.16;;;7.13;85.51
12913;BME280;6524;51.368;11.984;2024-02-04T19:27:56;153447.53;;;7.12;85.48
12913;BME280;6524;51.368;11.984;2024-02-04T19:33:02;153473.59;;;7.23;85.06
12913;BME280;6524;51.368;11.984;2024-02-04T19:38:03;153434.53;;;7.07;85.39
12913;BME280;6524;51.368;11.984;2024-02-04T19:43:04;153473.59;;;7.23;85.11
12913;BME280;6524;51.368;11.984;2024-02-04T19:48:05;153416.28;;;7.00;86.56
12913;BME280;6524;51.368;11.984;2024-02-04T19:53:05;153403.31;;;6.95;86.24
12913;BME280;6524;51.368;11.984;2024-02-04T19:58:06;153373.38;;;6.83;87.02
12913;BME280;6524;51.368;11.984;2024-02-04T20:03:07;153473.59;;;7.23;85.27
12913;BME280;6524;51.368;11.984;2024-02-04T20:08:08;153510.03;;;7.37;84.95
12913;BME280;6524;51.368;11.984;2024-02-04T20:13:08;153567.28;;;7.59;84.15
12913;BME280;6524;51.368;11.984;2024-02-04T20:18:09;153524.38;;;7.42;85.07
12913;BME280;6524;51.368;11.984;2024-02-04T20:23:10;153502.22;;;7.34;86.33
12913;BME280;6524;51.368;11.984;2024-02-04T20:28:11;153572.50;;;7.61;85.49
12913;BME280;6524;51.368;11.984;2024-02-04T20:33:12;153567.28;;;7.59;86.40
12913;BME280;6524;51.368;11.984;2024-02-04T20:38:14;153580.31;;;7.64;87.18
12913;BME280;6524;51.368;11.984;2024-02-04T20:43:14;153577.75;;;7.63;87.63
12913;BME280;6524;51.368;11.984;2024-02-04T20:48:15;153580.31;;;7.64;87.60
12913;BME280;6524;51.368;11.984;2024-02-04T20:53:16;153572.50;;;7.61;88.20
12913;BME280;6524;51.368;11.984;2024-02-04T20:58:16;153616.78;;;7.79;87.35
12913;BME280;6524;51.368;11.984;2024-02-04T21:03:17;153582.91;;;7.65;87.76
12913;BME280;6524;51.368;11.984;2024-02-04T21:08:19;153606.34;;;7.75;86.83
12913;BME280;6524;51.368;11.984;2024-02-04T21:13:20;153633.72;;;7.85;87.11
12913;BME280;6524;51.368;11.984;2024-02-04T21:18:20;153580.31;;;7.64;87.44
12913;BME280;6524;51.368;11.984;2024-02-04T21:23:21;153562.13;;;7.57;87.05
12913;BME280;6524;51.368;11.984;2024-02-04T21:28:22;153569.94;;;7.60;87.48
12913;BME280;6524;51.368;11.984;2024-02-04T21:33:26;153507.44;;;7.36;88.58
12913;BME280;6524;51.368;11.984;2024-02-04T21:38:27;153523.06;;;7.42;89.05
12913;BME280;6524;51.368;11.984;2024-02-04T21:43:27;153567.28;;;7.59;88.06
12913;BME280;6524;51.368;11.984;2024-02-04T21:48:28;153533.47;;;7.46;88.59
12913;BME280;6524;51.368;11.984;2024-02-04T21:53:28;153568.59;;;7.60;88.31
12913;BME280;6524;51.368;11.984;2024-02-04T21:58:29;153538.69;;;7.48;88.93
12913;BME280;6524;51.368;11.984;2024-02-04T22:03:30;153615.44;;;7.78;88.60
12913;BME280;6524;51.368;11.984;2024-02-04T22:08:30;153592.00;;;7.69;88.79
12913;BME280;6524;51.368;11.984;2024-02-04T22:13:31;153536.06;;;7.47;88.85
12913;BME280;6524;51.368;11.984;2024-02-04T22:18:32;153533.47;;;7.46;88.74
12913;BME280;6524;51.368;11.984;2024-02-04T22:23:33;153553.00;;;7.54;88.19
12913;BME280;6524;51.368;11.984;2024-02-04T22:28:33;153529.59;;;7.45;89.14
12913;BME280;6524;51.368;11.984;2024-02-04T22:33:34;153523.06;;;7.42;89.20
12913;BME280;6524;51.368;11.984;2024-02-04T22:38:34;153517.84;;;7.40;89.62
12913;BME280;6524;51.368;11.984;2024-02-04T22:43:35;153530.88;;;7.45;89.36
12913;BME280;6524;51.368;11.984;2024-02-04T22:48:35;153559.47;;;7.56;88.95
12913;BME280;6524;51.368;11.984;2024-02-04T22:53:36;153579.03;;;7.64;89.21
12913;BME280;6524;51.368;11.984;2024-02-04T22:58:37;153580.31;;;7.64;88.60
12913;BME280;6524;51.368;11.984;2024-02-04T23:03:37;153554.31;;;7.54;88.81
12913;BME280;6524;51.368;11.984;2024-02-04T23:08:38;153584.22;;;7.66;87.42
12913;BME280;6524;51.368;11.984;2024-02-04T23:13:39;153619.38;;;7.80;87.07
12913;BME280;6524;51.368;11.984;2024-02-04T23:18:39;153588.13;;;7.68;86.31
12913;BME280;6524;51.368;11.984;2024-02-04T23:23:40;153637.59;;;7.87;86.00
12913;BME280;6524;51.368;11.984;2024-02-04T23:28:40;153621.97;;;7.81;85.63
12913;BME280;6524;51.368;11.984;2024-02-04T23:33:41;153696.16;;;8.10;84.57
12913;BME280;6524;51.368;11.984;2024-02-04T23:38:42;153697.50;;;8.10;84.39
12913;BME280;6524;51.368;11.984;2024-02-04T23:43:43;153692.28;;;8.08;84.19
12913;BME280;6524;51.368;11.984;2024-02-04T23:48:44;153659.72;;;7.96;84.59
12913;BME280;6524;51.368;11.984;2024-02-04T23:53:45;153723.53;;;8.21;83.30
12913;BME280;6524;51.368;11.984;2024-02-04T23:58:49;153733.94;;;8.25;82.19
